Time;durP1;ratioP1;P1;durP2;ratioP2;P2;SDS_P1;SDS_P2;PMS_P1;PMS_P2;Temp;Humidity;BMP_temperature;BMP_pressure;BME280_temperature;BME280_humidity;BME280_pressure;Samples;Min_cycle;Max_cycle;Signal;HPM_P1;HPM_P2
2023/09/12 00:00:39;;;;;;;20.75;11.80;;;;;;;;;;5059215;28;20077;-46
2023/09/12 00:03:04;;;;;;;16.07;11.37;;;;;;;;;;5055073;28;20058;-46
2023/09/12 00:05:30;;;;;;;20.43;13.30;;;;;;;;;;5053608;28;20285;-46
2023/09/12 00:07:55;;;;;;;19.50;12.30;;;;;;;;;;5058995;28;20341;-45
2023/09/12 00:10:20;;;;;;;17.17;12.53;;;;;;;;;;5057876;28;20025;-46
2023/09/12 00:12:46;;;;;;;14.80;10.32;;;;;;;;;;5056448;28;20035;-45
2023/09/12 00:15:11;;;;;;;13.27;11.30;;;;;;;;;;5053297;28;20028;-45
2023/09/12 00:17:36;;;;;;;19.90;11.75;;;;;;;;;;5060770;28;20291;-45
2023/09/12 00:20:04;;;;;;;16.63;10.20;;;;;;;;;;5050503;28;20024;-46
2023/09/12 00:22:29;;;;;;;18.63;11.50;;;;;;;;;;5056399;28;20285;-46
2023/09/12 00:24:54;;;;;;;15.43;11.07;;;;;;;;;;5056569;28;20025;-46
2023/09/12 00:27:19;;;;;;;54.97;33.93;;;;;;;;;;5061044;28;20113;-46
2023/09/12 00:29:45;;;;;;;68.60;41.93;;;;;;;;;;5053838;28;20024;-46
2023/09/12 00:32:10;;;;;;;28.97;19.80;;;;;;;;;;5058916;28;20017;-45
2023/09/12 00:34:35;;;;;;;16.93;12.10;;;;;;;;;;5057003;28;20158;-46
2023/09/12 00:37:00;;;;;;;16.33;11.53;;;;;;;;;;5056223;28;20429;-46
2023/09/12 00:39:26;;;;;;;16.60;11.27;;;;;;;;;;5059378;28;20029;-46
2023/09/12 00:41:51;;;;;;;17.23;11.40;;;;;;;;;;5059122;28;20049;-46
2023/09/12 00:44:16;;;;;;;17.90;10.95;;;;;;;;;;5051304;28;20290;-46
2023/09/12 00:46:41;;;;;;;18.00;11.63;;;;;;;;;;5055273;28;20044;-46
2023/09/12 00:49:07;;;;;;;17.63;11.53;;;;;;;;;;5056763;28;20793;-45
2023/09/12 00:51:33;;;;;;;18.85;12.18;;;;;;;;;;5057977;28;20282;-46
2023/09/12 00:53:58;;;;;;;14.43;10.60;;;;;;;;;;5053009;28;20542;-45
2023/09/12 00:56:24;;;;;;;16.02;11.70;;;;;;;;;;5055743;28;20163;-46
2023/09/12 00:58:51;;;;;;;18.33;11.60;;;;;;;;;;5057257;28;20100;-46
2023/09/12 01:01:17;;;;;;;26.15;11.52;;;;;;;;;;5055712;28;20270;-46
2023/09/12 01:03:42;;;;;;;17.70;11.25;;;;;;;;;;5055448;28;20029;-46
2023/09/12 01:06:08;;;;;;;17.53;12.00;;;;;;;;;;5055789;28;20041;-46
2023/09/12 01:08:34;;;;;;;16.85;11.90;;;;;;;;;;5055520;28;20694;-45
2023/09/12 01:10:59;;;;;;;19.13;10.98;;;;;;;;;;5051690;28;20020;-45
2023/09/12 01:13:25;;;;;;;18.83;11.97;;;;;;;;;;5056514;28;20489;-45
2023/09/12 01:15:50;;;;;;;16.92;12.23;;;;;;;;;;5053992;28;20126;-46
2023/09/12 01:18:15;;;;;;;16.08;11.60;;;;;;;;;;5056288;28;20032;-45
2023/09/12 01:20:48;;;;;;;18.90;11.80;;;;;;;;;;5053431;28;20067;-46
2023/09/12 01:23:32;;;;;;;16.10;10.80;;;;;;;;;;5050679;28;20035;-46
2023/09/12 01:26:12;;;;;;;18.90;12.05;;;;;;;;;;5054856;28;20021;-46
2023/09/12 01:28:37;;;;;;;14.73;11.30;;;;;;;;;;5057241;28;20032;-46
2023/09/12 01:31:03;;;;;;;17.45;10.70;;;;;;;;;;5056390;28;20019;-46
2023/09/12 01:33:29;;;;;;;16.30;11.27;;;;;;;;;;5051388;28;20058;-45
2023/09/12 01:35:54;;;;;;;19.58;11.15;;;;;;;;;;5052682;28;20025;-45
2023/09/12 01:38:19;;;;;;;18.40;10.77;;;;;;;;;;5052632;28;20028;-46
2023/09/12 01:40:51;;;;;;;11.38;7.05;;;;;;;;;;5053400;28;20360;-46
2023/09/12 01:43:18;;;;;;;15.35;10.95;;;;;;;;;;5055010;28;20025;-45
2023/09/12 01:45:45;;;;;;;18.38;11.63;;;;;;;;;;5047269;28;20029;-46
2023/09/12 01:48:11;;;;;;;20.90;12.07;;;;;;;;;;5050798;28;20074;-46
2023/09/12 01:50:36;;;;;;;18.95;10.80;;;;;;;;;;5053269;28;20032;-46
2023/09/12 01:53:02;;;;;;;15.07;10.50;;;;;;;;;;5051129;28;20052;-46
2023/09/12 01:55:28;;;;;;;21.58;11.20;;;;;;;;;;5052266;28;20066;-46
2023/09/12 01:57:53;;;;;;;22.52;10.55;;;;;;;;;;5055277;28;20028;-46
2023/09/12 02:00:21;;;;;;;17.15;10.63;;;;;;;;;;5051569;28;20098;-46
2023/09/12 02:02:47;;;;;;;18.60;10.07;;;;;;;;;;5053672;28;20572;-46
2023/09/12 02:05:22;;;;;;;17.77;10.18;;;;;;;;;;5053055;28;20024;-46
2023/09/12 02:07:47;;;;;;;16.42;10.45;;;;;;;;;;5057570;28;20040;-46
2023/09/12 02:10:13;;;;;;;17.65;11.52;;;;;;;;;;5053884;28;20024;-46
2023/09/12 02:12:39;;;;;;;16.73;10.40;;;;;;;;;;5054581;28;20052;-46
2023/09/12 02:15:04;;;;;;;13.15;9.63;;;;;;;;;;5053359;28;20109;-45
2023/09/12 02:17:30;;;;;;;16.20;10.70;;;;;;;;;;5052325;28;20556;-46
2023/09/12 02:19:55;;;;;;;18.13;11.00;;;;;;;;;;5056426;28;20017;-46
2023/09/12 02:22:20;;;;;;;12.30;9.30;;;;;;;;;;5051305;28;20040;-45
2023/09/12 02:24:45;;;;;;;14.88;11.07;;;;;;;;;;5057466;28;20500;-45
2023/09/12 02:27:11;;;;;;;13.50;10.33;;;;;;;;;;5055129;28;20060;-45
2023/09/12 02:29:37;;;;;;;16.07;10.40;;;;;;;;;;5054694;28;20017;-45
2023/09/12 02:32:03;;;;;;;15.40;10.23;;;;;;;;;;5053463;28;20382;-45
2023/09/12 02:34:28;;;;;;;16.63;10.32;;;;;;;;;;5053453;28;20027;-46
2023/09/12 02:36:53;;;;;;;15.40;9.57;;;;;;;;;;5053157;28;20027;-46
2023/09/12 02:39:18;;;;;;;15.03;9.77;;;;;;;;;;5055846;28;20039;-45
2023/09/12 02:41:44;;;;;;;14.30;8.50;;;;;;;;;;5056338;28;20024;-45
2023/09/12 02:44:09;;;;;;;14.20;9.97;;;;;;;;;;5053492;28;20285;-46
2023/09/12 02:46:34;;;;;;;14.27;9.33;;;;;;;;;;5046438;28;20024;-46
2023/09/12 02:48:59;;;;;;;9.60;5.93;;;;;;;;;;5054886;28;20322;-46
2023/09/12 02:51:25;;;;;;;9.97;7.87;;;;;;;;;;5053024;28;20028;-46
2023/09/12 02:53:50;;;;;;;15.73;8.65;;;;;;;;;;5054123;28;20382;-45
2023/09/12 02:56:15;;;;;;;7.30;5.10;;;;;;;;;;5052766;28;20036;-46
2023/09/12 02:58:41;;;;;;;11.77;8.13;;;;;;;;;;5053591;28;20086;-45
2023/09/12 03:01:06;;;;;;;13.27;7.83;;;;;;;;;;5049070;28;20020;-46
2023/09/12 03:03:31;;;;;;;12.60;8.60;;;;;;;;;;5054856;28;20037;-46
2023/09/12 03:06:01;;;;;;;15.65;10.88;;;;;;;;;;5053652;28;20362;-46
2023/09/12 03:08:26;;;;;;;17.88;12.05;;;;;;;;;;5053970;28;20039;-46
2023/09/12 03:10:55;;;;;;;19.57;10.37;;;;;;;;;;5051730;28;20024;-45
2023/09/12 03:13:20;;;;;;;11.60;8.43;;;;;;;;;;5054761;28;20106;-45
2023/09/12 03:15:45;;;;;;;12.03;8.60;;;;;;;;;;5051259;28;20024;-46
2023/09/12 03:18:11;;;;;;;13.03;9.33;;;;;;;;;;5053488;28;20043;-46
2023/09/12 03:20:37;;;;;;;16.40;9.15;;;;;;;;;;5055469;28;20664;-46
2023/09/12 03:23:03;;;;;;;16.85;9.23;;;;;;;;;;5055917;28;20436;-46
2023/09/12 03:25:28;;;;;;;15.57;8.60;;;;;;;;;;5048634;28;20029;-46
2023/09/12 03:27:53;;;;;;;13.33;8.60;;;;;;;;;;5054239;28;20111;-46
2023/09/12 03:30:20;;;;;;;15.80;9.87;;;;;;;;;;5060127;28;20270;-46
2023/09/12 03:32:45;;;;;;;13.57;8.02;;;;;;;;;;5052796;28;20024;-46
2023/09/12 03:35:10;;;;;;;12.73;8.30;;;;;;;;;;5055725;28;20119;-46
2023/09/12 03:37:39;;;;;;;10.70;8.13;;;;;;;;;;5047894;28;20287;-46
2023/09/12 03:40:06;;;;;;;11.88;8.45;;;;;;;;;;5054056;28;21097;-45
2023/09/12 03:42:31;;;;;;;14.30;8.52;;;;;;;;;;5051675;28;20146;-46
2023/09/12 03:44:56;;;;;;;13.40;8.87;;;;;;;;;;5051512;28;20396;-45
2023/09/12 03:47:21;;;;;;;11.13;8.90;;;;;;;;;;5057772;28;20078;-46
2023/09/12 03:49:47;;;;;;;18.30;9.07;;;;;;;;;;5054048;28;20025;-46
2023/09/12 03:52:12;;;;;;;15.47;9.27;;;;;;;;;;5056680;28;20052;-46
2023/09/12 03:54:37;;;;;;;13.88;9.25;;;;;;;;;;5055679;28;20051;-45
2023/09/12 03:57:02;;;;;;;14.07;8.90;;;;;;;;;;5056359;28;20074;-46
2023/09/12 03:59:28;;;;;;;16.52;9.15;;;;;;;;;;5054263;28;20036;-46
2023/09/12 04:01:53;;;;;;;9.13;5.27;;;;;;;;;;5059472;28;20032;-46
2023/09/12 04:04:18;;;;;;;14.57;8.47;;;;;;;;;;5060364;28;20495;-45
2023/09/12 04:06:43;;;;;;;13.37;9.07;;;;;;;;;;5057880;28;20024;-46
2023/09/12 04:09:09;;;;;;;13.07;8.57;;;;;;;;;;5057775;28;20078;-46
2023/09/12 04:11:34;;;;;;;14.37;9.93;;;;;;;;;;5052410;28;20067;-46
2023/09/12 04:13:59;;;;;;;13.63;8.83;;;;;;;;;;5057442;28;20559;-46
2023/09/12 04:16:24;;;;;;;13.70;9.43;;;;;;;;;;5054196;28;20040;-46
2023/09/12 04:18:50;;;;;;;7.55;6.07;;;;;;;;;;5054664;28;20037;-46
2023/09/12 04:21:15;;;;;;;15.37;10.80;;;;;;;;;;5059870;28;20056;-46
2023/09/12 04:23:40;;;;;;;16.07;9.70;;;;;;;;;;5048229;28;20287;-46
2023/09/12 04:26:05;;;;;;;14.97;10.67;;;;;;;;;;5052457;28;21069;-46
2023/09/12 04:28:37;;;;;;;14.07;10.67;;;;;;;;;;5058272;28;20110;-46
2023/09/12 04:31:03;;;;;;;15.20;10.82;;;;;;;;;;5053798;28;20819;-46
2023/09/12 04:33:28;;;;;;;15.48;9.57;;;;;;;;;;5053985;28;20054;-46
2023/09/12 04:35:53;;;;;;;16.20;9.73;;;;;;;;;;5052711;28;20029;-46
2023/09/12 04:38:20;;;;;;;13.23;8.35;;;;;;;;;;5055357;28;20116;-46
2023/09/12 04:40:53;;;;;;;11.82;8.85;;;;;;;;;;5060705;28;20039;-46
2023/09/12 04:43:18;;;;;;;14.60;9.52;;;;;;;;;;5050070;28;22159;-46
2023/09/12 04:45:44;;;;;;;14.90;10.70;;;;;;;;;;5060026;28;20039;-46
2023/09/12 04:48:09;;;;;;;15.02;9.18;;;;;;;;;;5049410;28;20495;-46
2023/09/12 04:50:40;;;;;;;13.13;9.30;;;;;;;;;;5062393;28;20052;-46
2023/09/12 04:53:05;;;;;;;14.15;9.05;;;;;;;;;;5057394;28;20767;-46
2023/09/12 04:55:30;;;;;;;18.20;10.27;;;;;;;;;;5057027;28;20032;-46
2023/09/12 04:57:55;;;;;;;17.33;9.87;;;;;;;;;;5065799;28;20028;-46
2023/09/12 05:00:21;;;;;;;13.90;8.87;;;;;;;;;;5058757;28;20028;-46
2023/09/12 05:02:46;;;;;;;14.93;9.13;;;;;;;;;;5059925;28;20020;-46
2023/09/12 05:05:12;;;;;;;17.88;10.13;;;;;;;;;;5056393;28;20021;-46
2023/09/12 05:07:37;;;;;;;13.27;10.00;;;;;;;;;;5058755;28;20024;-46
2023/09/12 05:10:03;;;;;;;13.80;9.23;;;;;;;;;;5060240;28;20100;-46
2023/09/12 05:12:28;;;;;;;16.90;9.13;;;;;;;;;;5054792;28;20027;-46
2023/09/12 05:14:54;;;;;;;16.57;8.40;;;;;;;;;;5059539;28;20364;-46
2023/09/12 05:17:19;;;;;;;11.63;8.27;;;;;;;;;;5057457;28;20055;-46
2023/09/12 05:19:44;;;;;;;15.57;8.80;;;;;;;;;;5062982;28;20106;-47
2023/09/12 05:22:10;;;;;;;15.13;9.07;;;;;;;;;;5060261;28;20354;-46
2023/09/12 05:24:35;;;;;;;19.30;8.57;;;;;;;;;;5060281;28;20056;-46
2023/09/12 05:27:00;;;;;;;14.27;8.10;;;;;;;;;;5046724;28;20318;-46
2023/09/12 05:29:25;;;;;;;11.77;8.48;;;;;;;;;;5055675;28;20144;-46
2023/09/12 05:31:51;;;;;;;12.10;9.03;;;;;;;;;;5060119;28;20642;-46
2023/09/12 05:34:16;;;;;;;11.77;7.85;;;;;;;;;;5061786;28;20039;-46
2023/09/12 05:36:41;;;;;;;13.10;7.75;;;;;;;;;;5057730;28;20029;-46
2023/09/12 05:39:07;;;;;;;10.55;7.97;;;;;;;;;;5057723;28;20032;-46
2023/09/12 05:41:32;;;;;;;15.48;9.18;;;;;;;;;;5062229;28;20082;-46
2023/09/12 05:43:57;;;;;;;14.47;9.03;;;;;;;;;;5052221;28;20020;-46
2023/09/12 05:46:22;;;;;;;10.07;8.00;;;;;;;;;;5053302;28;20020;-46
2023/09/12 05:48:48;;;;;;;13.45;8.60;;;;;;;;;;5059161;28;20110;-46
2023/09/12 05:51:13;;;;;;;11.47;7.90;;;;;;;;;;5055187;28;20059;-46
2023/09/12 05:53:38;;;;;;;15.43;9.20;;;;;;;;;;5059129;28;20024;-46
2023/09/12 05:56:03;;;;;;;14.53;8.10;;;;;;;;;;5059622;28;20024;-46
2023/09/12 05:58:29;;;;;;;15.70;10.23;;;;;;;;;;5059231;28;20085;-46
2023/09/12 06:00:55;;;;;;;19.58;10.35;;;;;;;;;;5053042;28;20431;-46
2023/09/12 06:03:21;;;;;;;16.27;10.77;;;;;;;;;;5057273;28;20028;-46
2023/09/12 06:05:46;;;;;;;13.50;9.43;;;;;;;;;;5056833;28;20688;-46
2023/09/12 06:08:11;;;;;;;12.77;9.13;;;;;;;;;;5056232;28;20029;-46
2023/09/12 06:10:36;;;;;;;11.70;8.50;;;;;;;;;;5060016;28;20383;-46
2023/09/12 06:13:02;;;;;;;13.63;9.13;;;;;;;;;;5055854;28;20341;-46
2023/09/12 06:15:28;;;;;;;11.23;8.90;;;;;;;;;;5057644;28;20637;-46
2023/09/12 06:17:53;;;;;;;16.35;9.38;;;;;;;;;;5056726;28;20032;-46
2023/09/12 06:20:19;;;;;;;16.67;10.60;;;;;;;;;;5062268;28;20028;-46
2023/09/12 06:22:44;;;;;;;14.55;9.50;;;;;;;;;;5056718;28;20047;-46
2023/09/12 06:25:09;;;;;;;16.65;10.80;;;;;;;;;;5051637;28;20017;-46
2023/09/12 06:27:35;;;;;;;21.50;11.63;;;;;;;;;;5055320;28;20028;-46
2023/09/12 06:30:00;;;;;;;20.07;9.57;;;;;;;;;;5058798;28;20035;-46
2023/09/12 06:32:25;;;;;;;34.40;22.20;;;;;;;;;;5060487;28;20028;-46
2023/09/12 06:34:51;;;;;;;30.57;18.73;;;;;;;;;;5056545;28;20032;-46
2023/09/12 06:37:16;;;;;;;18.63;11.77;;;;;;;;;;5061211;28;20035;-46
2023/09/12 06:39:41;;;;;;;14.85;10.38;;;;;;;;;;5059308;28;20278;-46
2023/09/12 06:42:07;;;;;;;18.70;10.73;;;;;;;;;;5059144;28;20033;-46
2023/09/12 06:44:32;;;;;;;16.83;11.65;;;;;;;;;;5053924;28;20317;-46
2023/09/12 06:46:58;;;;;;;17.10;10.73;;;;;;;;;;5060504;28;20064;-46
2023/09/12 06:49:23;;;;;;;43.30;20.23;;;;;;;;;;5055652;28;20555;-46
2023/09/12 06:51:48;;;;;;;22.92;12.60;;;;;;;;;;5057804;28;20287;-46
2023/09/12 06:54:14;;;;;;;24.73;12.60;;;;;;;;;;5059955;28;20017;-46
2023/09/12 06:56:42;;;;;;;18.65;11.57;;;;;;;;;;5060575;28;20028;-46
2023/09/12 06:59:07;;;;;;;19.70;11.63;;;;;;;;;;5057235;28;20036;-46
2023/09/12 07:01:33;;;;;;;22.13;12.98;;;;;;;;;;5056867;28;20033;-46
2023/09/12 07:03:58;;;;;;;20.63;12.35;;;;;;;;;;5058456;28;20032;-46
2023/09/12 07:06:23;;;;;;;21.45;12.50;;;;;;;;;;5057596;28;20086;-46
2023/09/12 07:08:49;;;;;;;20.58;11.15;;;;;;;;;;5061852;28;20051;-46
2023/09/12 07:11:14;;;;;;;16.45;10.88;;;;;;;;;;5060287;28;20809;-46
2023/09/12 07:13:40;;;;;;;16.75;10.65;;;;;;;;;;5058482;28;20664;-46
2023/09/12 07:16:05;;;;;;;21.55;11.82;;;;;;;;;;5058763;28;20095;-46
2023/09/12 07:18:33;;;;;;;16.02;11.13;;;;;;;;;;5054635;28;20032;-46
2023/09/12 07:21:00;;;;;;;16.42;10.88;;;;;;;;;;5063164;28;20029;-46
2023/09/12 07:23:25;;;;;;;17.60;11.00;;;;;;;;;;5062498;28;20024;-46
2023/09/12 07:25:51;;;;;;;18.73;10.70;;;;;;;;;;5058942;28;20039;-46
2023/09/12 07:28:16;;;;;;;15.77;10.60;;;;;;;;;;5060060;28;20349;-46
2023/09/12 07:30:41;;;;;;;22.92;11.93;;;;;;;;;;5059167;28;20114;-46
2023/09/12 07:33:06;;;;;;;19.43;11.83;;;;;;;;;;5061489;28;20107;-46
2023/09/12 07:35:32;;;;;;;16.40;10.40;;;;;;;;;;5058391;28;20298;-46
2023/09/12 07:37:57;;;;;;;15.52;9.95;;;;;;;;;;5058812;28;20659;-46
2023/09/12 07:40:22;;;;;;;16.73;10.57;;;;;;;;;;5062216;28;20028;-46
2023/09/12 07:42:48;;;;;;;16.67;11.90;;;;;;;;;;5055965;28;20656;-46
2023/09/12 07:45:13;;;;;;;24.13;14.57;;;;;;;;;;5059430;28;20087;-46
2023/09/12 07:47:39;;;;;;;23.88;15.32;;;;;;;;;;5061452;28;20024;-46
2023/09/12 07:50:06;;;;;;;23.80;14.23;;;;;;;;;;5059864;28;20502;-46
2023/09/12 07:52:32;;;;;;;24.05;12.18;;;;;;;;;;5058989;28;20034;-46
2023/09/12 07:55:00;;;;;;;17.98;12.05;;;;;;;;;;5059860;28;20497;-46
2023/09/12 07:57:25;;;;;;;20.08;11.65;;;;;;;;;;5059507;28;20036;-46
2023/09/12 07:59:51;;;;;;;15.37;11.50;;;;;;;;;;5059363;28;20033;-46
2023/09/12 08:02:16;;;;;;;18.07;11.67;;;;;;;;;;5058322;28;20297;-46
2023/09/12 08:04:41;;;;;;;19.67;12.07;;;;;;;;;;5057508;28;20028;-46
2023/09/12 08:07:06;;;;;;;17.60;11.60;;;;;;;;;;5064420;28;20290;-46
2023/09/12 08:09:49;;;;;;;16.40;11.25;;;;;;;;;;5058943;28;20314;-46
2023/09/12 08:12:14;;;;;;;16.73;10.63;;;;;;;;;;5058783;28;20046;-46
2023/09/12 08:14:39;;;;;;;15.70;10.53;;;;;;;;;;5062678;28;20068;-46
2023/09/12 08:17:04;;;;;;;13.87;10.37;;;;;;;;;;5064837;28;20025;-46
2023/09/12 08:19:30;;;;;;;17.43;10.20;;;;;;;;;;5066234;28;20380;-46
2023/09/12 08:21:55;;;;;;;22.27;13.93;;;;;;;;;;5063722;28;20033;-46
2023/09/12 08:24:20;;;;;;;25.87;16.23;;;;;;;;;;5058730;28;20557;-46
2023/09/12 08:26:45;;;;;;;25.07;15.70;;;;;;;;;;5059993;28;20100;-46
2023/09/12 08:29:10;;;;;;;18.67;11.70;;;;;;;;;;5060169;28;20017;-46
2023/09/12 08:31:36;;;;;;;22.87;12.97;;;;;;;;;;5060127;28;20108;-46
2023/09/12 08:34:01;;;;;;;18.77;10.50;;;;;;;;;;5059592;28;20419;-46
2023/09/12 08:36:26;;;;;;;15.70;10.80;;;;;;;;;;5059722;28;20020;-46
2023/09/12 08:38:51;;;;;;;15.27;9.47;;;;;;;;;;5058873;28;20039;-46
2023/09/12 08:41:17;;;;;;;30.70;16.60;;;;;;;;;;5057981;28;20032;-46
2023/09/12 08:43:43;;;;;;;26.88;17.20;;;;;;;;;;5061935;28;20384;-46
2023/09/12 08:46:08;;;;;;;21.40;13.55;;;;;;;;;;5065771;28;20036;-46
2023/09/12 08:48:34;;;;;;;17.60;10.20;;;;;;;;;;5053160;28;20119;-46
2023/09/12 08:51:00;;;;;;;20.27;11.32;;;;;;;;;;5060356;28;21345;-46
2023/09/12 08:53:26;;;;;;;18.38;10.45;;;;;;;;;;5065736;28;20024;-46
2023/09/12 08:55:52;;;;;;;10.53;6.27;;;;;;;;;;5061077;28;20030;-46
2023/09/12 08:58:18;;;;;;;14.25;9.48;;;;;;;;;;5061255;28;20923;-46
2023/09/12 09:00:43;;;;;;;18.30;9.98;;;;;;;;;;5062556;28;20055;-46
2023/09/12 09:03:08;;;;;;;17.30;10.60;;;;;;;;;;5057814;28;20060;-46
2023/09/12 09:05:34;;;;;;;12.52;9.07;;;;;;;;;;5062008;28;20032;-46
2023/09/12 09:08:00;;;;;;;18.45;10.57;;;;;;;;;;5060251;28;20086;-46
2023/09/12 09:10:31;;;;;;;15.65;10.30;;;;;;;;;;5059152;28;20029;-46
2023/09/12 09:12:56;;;;;;;13.50;9.20;;;;;;;;;;5060059;28;20071;-46
2023/09/12 09:15:22;;;;;;;14.63;9.30;;;;;;;;;;5061346;28;20025;-46
2023/09/12 09:17:50;;;;;;;16.65;8.93;;;;;;;;;;5060621;28;20033;-46
2023/09/12 09:20:22;;;;;;;16.13;9.85;;;;;;;;;;5063257;28;20387;-46
2023/09/12 09:23:08;;;;;;;14.68;10.32;;;;;;;;;;5060259;28;20378;-46
2023/09/12 09:25:34;;;;;;;18.50;10.15;;;;;;;;;;5060604;28;21934;-46
2023/09/12 09:28:04;;;;;;;16.67;8.90;;;;;;;;;;5060034;28;20032;-46
2023/09/12 09:30:48;;;;;;;17.63;8.88;;;;;;;;;;5061694;28;20013;-46
2023/09/12 09:33:14;;;;;;;18.40;8.55;;;;;;;;;;5060527;28;20033;-46
2023/09/12 09:35:43;;;;;;;10.65;6.38;;;;;;;;;;5062205;28;20025;-46
2023/09/12 09:38:08;;;;;;;13.50;7.05;;;;;;;;;;5055845;28;20021;-46
2023/09/12 09:40:35;;;;;;;13.38;6.28;;;;;;;;;;5058969;28;20043;-46
2023/09/12 09:43:01;;;;;;;13.25;6.72;;;;;;;;;;5057245;28;20024;-46
2023/09/12 09:45:28;;;;;;;11.90;6.45;;;;;;;;;;5060564;28;20067;-46
2023/09/12 09:47:56;;;;;;;12.88;5.82;;;;;;;;;;5065117;28;20610;-46
2023/09/12 09:50:21;;;;;;;11.15;5.43;;;;;;;;;;5059668;28;20111;-46
2023/09/12 09:52:52;;;;;;;16.67;5.97;;;;;;;;;;5060612;28;20194;-46
2023/09/12 09:55:19;;;;;;;12.57;6.30;;;;;;;;;;5059731;28;20278;-46
2023/09/12 09:57:44;;;;;;;13.55;7.30;;;;;;;;;;5054021;28;20039;-45
2023/09/12 10:00:14;;;;;;;19.00;7.00;;;;;;;;;;5060585;28;20115;-46
2023/09/12 10:02:40;;;;;;;13.48;7.35;;;;;;;;;;5056392;28;20029;-46
2023/09/12 10:05:08;;;;;;;9.35;6.85;;;;;;;;;;5059252;28;20017;-46
2023/09/12 10:07:36;;;;;;;14.23;6.40;;;;;;;;;;5056389;28;20046;-46
2023/09/12 10:10:02;;;;;;;24.00;7.35;;;;;;;;;;5054631;28;20422;-46
2023/09/12 10:12:30;;;;;;;17.08;7.00;;;;;;;;;;5052971;28;20033;-46
2023/09/12 10:14:56;;;;;;;9.18;5.90;;;;;;;;;;5054797;28;20021;-46
2023/09/12 10:17:25;;;;;;;13.93;6.65;;;;;;;;;;5055499;28;20487;-46
2023/09/12 10:20:04;;;;;;;5.78;3.60;;;;;;;;;;5062180;28;20031;-46
2023/09/12 10:22:53;;;;;;;14.45;6.78;;;;;;;;;;5056686;28;20029;-46
2023/09/12 10:25:18;;;;;;;19.98;7.03;;;;;;;;;;5038438;28;20044;-46
2023/09/12 10:27:44;;;;;;;13.95;7.20;;;;;;;;;;5057295;28;20103;-46
2023/09/12 10:30:09;;;;;;;11.98;7.28;;;;;;;;;;5061133;28;20047;-46
2023/09/12 10:32:41;;;;;;;12.70;7.18;;;;;;;;;;5054149;28;20032;-46
2023/09/12 10:35:07;;;;;;;11.10;5.03;;;;;;;;;;5061949;28;20020;-46
2023/09/12 10:37:35;;;;;;;14.23;6.20;;;;;;;;;;5056875;28;20029;-46
2023/09/12 10:40:03;;;;;;;12.75;6.05;;;;;;;;;;5059482;28;20029;-46
2023/09/12 10:42:29;;;;;;;14.10;6.03;;;;;;;;;;5053371;28;20039;-46
2023/09/12 10:44:55;;;;;;;14.32;5.65;;;;;;;;;;5056669;28;20036;-46
2023/09/12 10:47:20;;;;;;;24.58;5.93;;;;;;;;;;5056431;28;21006;-46
2023/09/12 10:49:46;;;;;;;16.45;5.78;;;;;;;;;;5058015;28;20032;-46
2023/09/12 10:52:23;;;;;;;12.68;4.90;;;;;;;;;;5054177;28;20025;-46
2023/09/12 10:54:48;;;;;;;13.02;5.30;;;;;;;;;;5059345;28;20020;-45
2023/09/12 10:57:13;;;;;;;14.70;5.57;;;;;;;;;;5059790;28;20081;-47
2023/09/12 10:59:57;;;;;;;13.77;6.17;;;;;;;;;;5063260;28;20077;-46
2023/09/12 11:02:33;;;;;;;12.52;5.38;;;;;;;;;;5048969;28;20395;-46
2023/09/12 11:04:59;;;;;;;7.90;4.75;;;;;;;;;;5053968;28;20025;-47
2023/09/12 11:07:32;;;;;;;14.82;5.03;;;;;;;;;;5063969;28;20047;-46
2023/09/12 11:10:15;;;;;;;11.15;4.25;;;;;;;;;;5065479;28;20052;-46
2023/09/12 11:12:41;;;;;;;12.85;5.15;;;;;;;;;;5062367;28;20023;-46
2023/09/12 11:15:08;;;;;;;12.75;3.38;;;;;;;;;;5063543;28;20056;-46
2023/09/12 11:17:39;;;;;;;21.17;5.90;;;;;;;;;;5060457;28;20067;-46
2023/09/12 11:20:10;;;;;;;20.40;5.38;;;;;;;;;;5060345;28;20032;-46
2023/09/12 11:22:36;;;;;;;11.32;4.40;;;;;;;;;;5062961;28;20139;-47
2023/09/12 11:25:02;;;;;;;14.18;4.93;;;;;;;;;;5062689;28;20028;-47
2023/09/12 11:27:50;;;;;;;12.35;5.20;;;;;;;;;;5057810;28;20029;-46
2023/09/12 11:30:16;;;;;;;12.15;5.15;;;;;;;;;;5057930;28;20041;-46
2023/09/12 11:32:43;;;;;;;16.90;4.90;;;;;;;;;;5058388;28;20025;-46
2023/09/12 11:35:10;;;;;;;13.88;5.43;;;;;;;;;;5064220;28;20498;-45
2023/09/12 11:37:38;;;;;;;20.15;6.55;;;;;;;;;;5051417;28;20054;-46
2023/09/12 11:40:23;;;;;;;16.00;5.65;;;;;;;;;;5060088;28;20604;-46
2023/09/12 11:42:52;;;;;;;20.00;5.85;;;;;;;;;;5054419;28;20052;-46
2023/09/12 11:45:18;;;;;;;16.65;5.47;;;;;;;;;;5053314;28;20127;-45
2023/09/12 11:47:44;;;;;;;18.45;5.38;;;;;;;;;;5060770;28;20057;-46
2023/09/12 11:50:25;;;;;;;17.42;4.97;;;;;;;;;;5063769;28;20036;-46
2023/09/12 11:52:57;;;;;;;12.98;6.13;;;;;;;;;;5060856;28;20024;-46
2023/09/12 11:55:23;;;;;;;15.50;5.57;;;;;;;;;;5059385;28;20025;-46
2023/09/12 11:57:49;;;;;;;14.02;5.60;;;;;;;;;;5053952;28;20122;-46
2023/09/12 12:00:14;;;;;;;11.65;4.78;;;;;;;;;;5057922;28;20063;-46
2023/09/12 12:02:39;;;;;;;16.05;5.55;;;;;;;;;;5057960;28;20032;-46
2023/09/12 12:05:04;;;;;;;12.60;5.83;;;;;;;;;;5057593;28;20021;-47
2023/09/12 12:07:30;;;;;;;12.63;5.63;;;;;;;;;;5060477;28;20070;-46
2023/09/12 12:09:55;;;;;;;14.57;4.90;;;;;;;;;;5061445;28;20283;-46
2023/09/12 12:12:20;;;;;;;12.82;5.55;;;;;;;;;;5059523;28;20029;-46
2023/09/12 12:14:46;;;;;;;20.85;5.00;;;;;;;;;;5060481;28;20040;-46
2023/09/12 12:17:11;;;;;;;13.35;5.70;;;;;;;;;;5061824;28;20027;-47
2023/09/12 12:19:37;;;;;;;14.88;5.47;;;;;;;;;;5062037;28;20494;-46
2023/09/12 12:22:05;;;;;;;16.83;5.93;;;;;;;;;;5060466;28;20029;-47
2023/09/12 12:24:36;;;;;;;16.70;8.00;;;;;;;;;;5060498;28;20374;-45
2023/09/12 12:27:03;;;;;;;18.27;5.57;;;;;;;;;;5059694;28;20033;-46
2023/09/12 12:29:28;;;;;;;18.02;6.60;;;;;;;;;;5058657;28;20846;-47
2023/09/12 12:31:53;;;;;;;12.52;5.85;;;;;;;;;;5060352;28;20059;-47
2023/09/12 12:34:21;;;;;;;17.07;5.33;;;;;;;;;;5058018;28;20031;-46
2023/09/12 12:36:46;;;;;;;19.63;6.70;;;;;;;;;;5060232;28;21171;-46
2023/09/12 12:39:12;;;;;;;15.43;6.40;;;;;;;;;;5062688;28;20116;-46
2023/09/12 12:41:38;;;;;;;17.80;5.65;;;;;;;;;;5065334;28;20285;-46
2023/09/12 12:44:04;;;;;;;17.67;6.73;;;;;;;;;;5059538;28;20041;-46
2023/09/12 12:46:30;;;;;;;18.10;5.70;;;;;;;;;;5061532;28;20051;-46
2023/09/12 12:48:55;;;;;;;14.05;5.88;;;;;;;;;;5061830;28;20028;-46
2023/09/12 12:51:22;;;;;;;14.13;5.80;;;;;;;;;;5058463;28;20460;-46
2023/09/12 12:53:55;;;;;;;18.27;5.28;;;;;;;;;;5059236;28;20104;-46
2023/09/12 12:56:22;;;;;;;15.95;5.82;;;;;;;;;;5059971;28;20021;-46
2023/09/12 12:58:48;;;;;;;11.02;5.70;;;;;;;;;;5061893;28;20036;-46
2023/09/12 13:01:14;;;;;;;18.85;5.90;;;;;;;;;;5057820;28;20158;-46
2023/09/12 13:03:40;;;;;;;19.65;6.40;;;;;;;;;;5061390;28;20032;-46
2023/09/12 13:06:06;;;;;;;14.68;6.28;;;;;;;;;;5063322;28;20023;-46
2023/09/12 13:08:34;;;;;;;15.63;5.75;;;;;;;;;;5057410;28;20028;-46
2023/09/12 13:10:59;;;;;;;13.63;5.68;;;;;;;;;;5059562;28;20093;-46
2023/09/12 13:13:25;;;;;;;16.47;5.27;;;;;;;;;;5057642;28;20503;-46
2023/09/12 13:15:50;;;;;;;14.60;5.23;;;;;;;;;;5059916;28;20284;-46
2023/09/12 13:18:15;;;;;;;11.00;5.30;;;;;;;;;;5061106;28;20033;-46
2023/09/12 13:20:40;;;;;;;16.55;5.63;;;;;;;;;;5060880;28;20037;-46
2023/09/12 13:23:06;;;;;;;15.20;6.00;;;;;;;;;;5054439;28;21479;-46
2023/09/12 13:26:01;;;;;;;;;;;;;;;;;;;;;
2023/09/12 13:28:27;;;;;;;15.18;5.53;;;;;;;;;;5055876;28;20027;-46
2023/09/12 13:30:52;;;;;;;19.87;6.00;;;;;;;;;;5057103;28;20025;-46
2023/09/12 13:33:18;;;;;;;13.05;5.32;;;;;;;;;;5058208;28;20105;-46
2023/09/12 13:35:43;;;;;;;17.10;5.10;;;;;;;;;;5057607;28;20017;-45
2023/09/12 13:38:11;;;;;;;15.57;5.23;;;;;;;;;;5060472;28;20123;-46
2023/09/12 13:40:46;;;;;;;13.15;4.90;;;;;;;;;;5062098;28;20482;-46
2023/09/12 13:43:12;;;;;;;20.52;6.30;;;;;;;;;;5055934;28;20055;-46
2023/09/12 13:45:37;;;;;;;14.32;6.00;;;;;;;;;;5053846;28;20032;-46
2023/09/12 13:48:03;;;;;;;13.38;5.80;;;;;;;;;;5044348;28;20059;-46
2023/09/12 13:50:29;;;;;;;14.70;5.10;;;;;;;;;;5046539;28;20021;-46
2023/09/12 13:52:55;;;;;;;12.57;5.30;;;;;;;;;;5052587;28;20020;-46
2023/09/12 13:55:21;;;;;;;18.90;5.15;;;;;;;;;;5053737;28;20114;-46
2023/09/12 13:57:46;;;;;;;15.27;5.73;;;;;;;;;;5047374;28;20145;-46
2023/09/12 14:00:11;;;;;;;16.13;5.90;;;;;;;;;;5050497;28;20027;-46
2023/09/12 14:02:37;;;;;;;21.83;6.03;;;;;;;;;;5057022;28;20383;-46
2023/09/12 14:05:12;;;;;;;20.40;5.88;;;;;;;;;;5057483;28;20562;-46
2023/09/12 14:07:44;;;;;;;13.45;4.95;;;;;;;;;;5059540;28;20123;-46
2023/09/12 14:10:10;;;;;;;20.33;6.65;;;;;;;;;;5054002;28;20694;-46
2023/09/12 14:12:35;;;;;;;12.43;5.57;;;;;;;;;;5055838;28;20063;-46
2023/09/12 14:15:01;;;;;;;18.00;6.20;;;;;;;;;;5040969;28;20032;-46
2023/09/12 14:17:28;;;;;;;18.38;6.28;;;;;;;;;;5059277;28;20037;-47
2023/09/12 14:19:53;;;;;;;15.63;4.93;;;;;;;;;;5053087;28;20085;-46
2023/09/12 14:22:19;;;;;;;18.53;5.23;;;;;;;;;;5051007;28;20040;-46